Site contains unofficial IBTrACS data. Visit the IBTrACS Website to access archived data.

1998 Severe Tropical Cyclone TIFFANY (1998022S15125)


IBTrACS version v04r00. Visit IBTrACS website for data access.
Please direct all questions to the IBTrACS Q and A forum

Storm track - Intensity - Wind Radii - Intensity Data - Source Data - All data

Summary Information

Satellite image near maximum intensity
Storm ID 1998022S15125
Start Jan 22 10Z
Landfall Jan 22 12Z, Jan 23 09Z, Jan 23 15Z, Jan 24 06Z
Max Intensity 120 kt (Jan 27 00Z), 940 mb (Jan 26 16Z)
End Feb 2 10Z
ATCF IDs ,SH151998
Track status Best track data.

Storm track plot

Map of storm track

Intensity plots

Map of storm track

Radial wind information

Map of storm track

Position and Intensity Table

BASIN ISO_TIME_________ NATURE LAT LON WMO WIND WMO PRES USA WIND BOM WIND BOM PRES NEUMANN WIND NEUMANN PRES
degrees north degrees east kts mb kts kts mb kts mb
SI 1998-01-22 10:00:00 NR -15.00 124.50 25 1001 25 1001
SI 12:00:00 NR -15.82 124.96 15 25 1001
SI 15:00:00 NR -16.07 125.06 15 25 1001
SI 18:00:00 NR -16.22 125.07 15 25 1001
SI 21:00:00 NR -16.36 125.03 15 25 1001
SI 22:00:00 NR -16.38 125.00 25 1002 15 25 1002
SI 1998-01-23 00:00:00 TS -16.37 124.93 15 25 1002 25 1002
SI 03:00:00 TS -16.39 124.78 17 25 1002 25 1002
SI 04:00:00 TS -16.40 124.73 25 1002 18 25 1002 25 1002
SI 06:00:00 TS -16.41 124.62 20 25 1001 25 1002
SI 09:00:00 TS -16.44 124.44 20 25 1001 25 1001
SI 10:00:00 TS -16.45 124.38 25 1001 20 25 1001 25 1001
SI 12:00:00 TS -16.49 124.26 20 25 1001 25 1001
SI 15:00:00 TS -16.57 124.08 22 25 1001 25 1001
SI 16:00:00 TS -16.60 124.01 25 1001 23 25 1001 25 1001
SI 18:00:00 TS -16.65 123.88 25 25 1001 25 1001
SI 21:00:00 TS -16.70 123.67 25 25 1001 25 1001
SI 22:00:00 TS -16.71 123.59 25 1001 25 25 1001 25 1001
SI 1998-01-24 00:00:00 TS -16.74 123.45 25 25 1001 25 1001
SI 03:00:00 TS -16.79 123.24 25 25 1001 25 1001
SI 04:00:00 TS -16.81 123.17 25 1001 25 25 1001 25 1001
SI 06:00:00 TS -16.84 123.03 25 25 1000 25 1001
SI 09:00:00 TS -16.89 122.80 27 25 1000 27 1000
SI 10:00:00 TS -16.91 122.72 25 1000 28 25 1000 28 1000
SI 12:00:00 TS -16.97 122.54 30 28 998 30 1000
SI 15:00:00 TS -17.09 122.25 32 33 995 35 997
SI 16:00:00 TS -17.13 122.14 35 995 33 35 995 36 996
SI 18:00:00 TS -17.16 121.91 35 39 991 40 995
SI 21:00:00 TS -17.13 121.53 42 47 986 47 990
SI 22:00:00 TS -17.12 121.40 50 985 45 50 985 50 988
SI 1998-01-25 00:00:00 TS -17.17 121.16 50 51 983 55 985
SI 03:00:00 TS -17.33 120.85 50 54 980 57 982
SI 04:00:00 TS -17.39 120.74 55 980 50 55 980 58 981
SI 06:00:00 TS -17.49 120.52 50 56 978 60 980
SI 09:00:00 TS -17.61 120.16 50 59 975 65 977
SI 10:00:00 TS -17.65 120.04 60 975 50 60 975 66 976
SI 12:00:00 TS -17.72 119.85 50 61 973 70 975
SI 15:00:00 TS -17.82 119.62 52 64 970 72 972
SI 16:00:00 TS -17.85 119.55 65 970 53 65 970 73 971
SI 18:00:00 TS -17.93 119.42 55 68 968 75 970
SI 21:00:00 TS -18.07 119.22 60 73 965 77 967
SI 22:00:00 TS -18.11 119.15 75 965 61 75 965 78 966
SI 1998-01-26 00:00:00 TS -18.18 119.03 65 76 963 80 965
SI 03:00:00 TS -18.27 118.87 72 79 960 82 962
SI 04:00:00 TS -18.30 118.81 80 960 75 80 960 83 961
SI 06:00:00 TS -18.35 118.70 80 81 958 85 960
SI 09:00:00 TS -18.41 118.52 87 84 955 90 957
SI 10:00:00 TS -18.42 118.46 85 955 90 85 955 91 956
SI 12:00:00 TS -18.43 118.33 95 88 951 95 955
SI 13:00:00 TS -18.43 118.25 90 950 98 90 950 97 952
SI 15:00:00 TS -18.42 118.08 105 93 943 102 947
SI 16:00:00 TS -18.42 118.00 95 940 108 95 940 105 944
SI 18:00:00 TS -18.45 117.85 115 98 940 110 940
SI 19:00:00 TS -18.48 117.79 100 940 115 100 940 108 941
SI 21:00:00 TS -18.56 117.67 117 100 946 105 945
SI 22:00:00 TS -18.60 117.60 100 950 118 100 950 103 946
SI 1998-01-27 00:00:00 TS -18.69 117.44 120 100 953 100 950
SI 01:00:00 TS -18.73 117.35 100 955 120 100 955 99 950
SI 03:00:00 TS -18.83 117.16 120 100 955 97 952
SI 04:00:00 TS -18.88 117.05 100 955 120 100 955 96 953
SI 06:00:00 TS -18.98 116.81 120 96 948 95 955
SI 07:00:00 TS -19.03 116.68 95 945 120 95 945 96 953
SI 09:00:00 TS -19.12 116.41 120 95 945 100 950
SI 10:00:00 TS -19.16 116.27 95 945 120 95 945 101 948
SI 12:00:00 TS -19.20 115.96 120 91 948 105 945
SI 13:00:00 TS -19.20 115.80 90 950 119 90 950 103 946
SI 15:00:00 TS -19.16 115.49 117 86 953 100 950
SI 16:00:00 TS -19.14 115.31 85 955 116 85 955 98 951
SI 18:00:00 TS -19.15 114.86 115 81 955 95 955
SI 19:00:00 TS -19.18 114.66 80 955 114 80 955 95 955
SI 21:00:00 TS -19.21 114.44 112 80 955 95 955
SI 22:00:00 TS -19.23 114.34 80 955 111 80 955 95 955
SI 1998-01-28 00:00:00 TS -19.28 114.06 110 80 955 95 955
SI 03:00:00 TS -19.37 113.56 112 80 955 95 955
SI 04:00:00 TS -19.40 113.38 80 955 113 80 955 95 955
SI 06:00:00 TS -19.46 113.06 115 83 956 95 955
SI 09:00:00 TS -19.53 112.54 115 88 959 90 957
SI 10:00:00 TS -19.55 112.37 90 960 115 90 960 88 958
SI 12:00:00 TS -19.57 112.02 115 86 963 85 960
SI 15:00:00 TS -19.57 111.49 110 81 968 80 965
SI 16:00:00 TS -19.57 111.32 80 970 108 80 970 78 966
SI 18:00:00 TS -19.57 111.00 105 71 974 75 970
SI 21:00:00 TS -19.56 110.57 100 59 982 65 977
SI 22:00:00 TS -19.56 110.44 55 985 98 55 985 61 980
SI 1998-01-29 00:00:00 TS -19.57 110.18 95 53 985 55 985
SI 03:00:00 TS -19.58 109.85 87 50 985 55 985
SI 04:00:00 TS -19.59 109.75 50 985 84 50 985 55 985
SI 06:00:00 TS -19.60 109.56 80 50 985 55 985
SI 09:00:00 TS -19.62 109.29 72 50 985 55 985
SI 10:00:00 TS -19.63 109.20 50 985 69 50 985 55 985
SI 12:00:00 TS -19.64 109.04 65 46 986 55 985
SI 15:00:00 TS -19.63 108.81 57 41 989 50 987
SI 16:00:00 TS -19.62 108.73 40 990 54 40 990 48 988
SI 18:00:00 TS -19.59 108.59 50 38 991 45 990
SI 21:00:00 TS -19.54 108.38 45 35 994 42 992
SI 22:00:00 TS -19.52 108.31 35 995 43 35 995 41 993
SI 1998-01-30 00:00:00 TS -19.50 108.15 40 33 995 40 995
SI 03:00:00 TS -19.47 107.88 37 30 996 37 996
SI 04:00:00 TS -19.47 107.79 30 997 36 30 997 36 996
SI 06:00:00 TS -19.48 107.61 35 28 997 35 997
SI 09:00:00 TS -19.51 107.34 35 25 999 32 998
SI 10:00:00 TS -19.52 107.25 25 1000 35 25 1000 31 999
SI 12:00:00 TS -19.54 107.09 35 25 1000 30 1000
SI 15:00:00 TS -19.54 106.86 32 25 1000 30 1000
SI 16:00:00 TS -19.54 106.79 25 1000 31 25 1000 30 1000
SI 18:00:00 TS -19.54 106.66 30 25 1000 30 1000
SI 21:00:00 TS -19.54 106.49 30 25 1001 27 1001
SI 22:00:00 TS -19.54 106.43 25 1002 30 25 1002 26 1001
SI 1998-01-31 00:00:00 TS -19.52 106.31 30 25 1002 25 1002
SI 03:00:00 TS -19.49 106.11 27 25 1002 25 1002
SI 04:00:00 TS -19.48 106.04 25 1002 26 25 1002 25 1002
SI 06:00:00 TS -19.46 105.92 25 25 1002 25 1002
SI 09:00:00 TS -19.43 105.75 25 25 1002 25 1002
SI 10:00:00 TS -19.42 105.70 25 1002 25 25 1002 25 1002
SI 12:00:00 TS -19.38 105.60 25 25 1002 25 1002
SI 15:00:00 TS -19.27 105.44 25 25 1002 25 1002
SI 16:00:00 TS -19.23 105.38 25 1002 25 25 1002 25 1002
SI 18:00:00 TS -19.15 105.27 25 23 1002 25 1002
SI 21:00:00 TS -19.04 105.08 25 20 1003 22 1003
SI 22:00:00 TS -19.00 105.02 20 1004 25 20 1004 21 1003
SI 1998-02-01 00:00:00 TS -18.90 104.90 25 20 1004 20 1004
SI 03:00:00 TS -18.70 104.73 22 20 1004 20 1004
SI 04:00:00 TS -18.64 104.68 20 1004 21 20 1004 20 1004
SI 06:00:00 TS -18.52 104.57 20 20 1004 20 1004
SI 09:00:00 TS -18.40 104.41 22 20 1004 20 1004
SI 10:00:00 TS -18.40 104.33 20 1004 23 20 1004 20 1004
SI 12:00:00 TS -18.39 104.12 25 20 1004
SI 15:00:00 NR -18.38 103.54
SI 18:00:00 NR -18.21 102.91
SI 21:00:00 NR -18.03 102.22
SI 1998-02-02 00:00:00 NR -17.87 101.52
SI 03:00:00 NR -17.73 100.89
SI 04:00:00 NR -17.70 100.70 20 1006 20 1006
SI 06:00:00 NR -17.65 100.37 20 1006
SI 09:00:00 NR -17.61 99.94 20 1006
SI 10:00:00 NR -17.60 99.80 20 1006 20 1006

Source Information

Agency Information
USA bsh151998.txt
TOKYO
CMA
HKO
NEWDELHI
REUNION
BOM IDCKMSTM0S.csv:Line=19646:TIFFANY
NADI
WELLINGTON
DS824
TD9636
TD9635
NEUMANN tracks.sh:Storm=1117:TIFFANY:BSH151998:FW866
MLC

All available IBTrACS Data

SEASON BASIN SUBBASIN ISO_TIME_________ NATURE LAT LON WMO WIND WMO PRES WMO AGENCY DIST2LAND LANDFALL IFLAG USA AGENCY USA ATCF_ID USA LAT USA LON USA WIND USA SSHS BOM LAT BOM LON BOM TYPE BOM WIND BOM PRES BOM CI BOM ROCI BOM EYE BOM POS_METHOD BOM PRES_METHOD NEUMANN LAT NEUMANN LON NEUMANN CLASS NEUMANN WIND NEUMANN PRES STORM SPEED STORM DIR
Year degrees north degrees east kts mb km km degrees north degrees east kts 1 degrees north degrees east kts mb 1 nmile nmile degrees north degrees east kts mb kts degrees
1998 SI WA 1998-01-22 10:00:00 NR -15.00 124.50 25 1001 bom 39 0 ______O_______ -1 -15.00 124.50 20 25 1001 296 3 7 28 152
1998 SI WA 12:00:00 NR -15.82 124.96 0 0 O_____P_______ jtwc_sh SH151998 -17.10 125.60 15 -1 -15.18 124.64 20 25 1001 255 14 153
1998 SI WA 15:00:00 NR -16.07 125.06 0 0 P_____P_______ SH151998 -17.00 125.39 15 -1 -15.45 124.83 20 25 1001 194 4 165
1998 SI WA 18:00:00 NR -16.22 125.07 0 0 O_____P_______ jtwc_sh SH151998 -16.90 125.20 15 -1 -15.71 124.97 20 25 1001 134 3 185
1998 SI WA 21:00:00 NR -16.36 125.03 0 0 P_____P_______ SH151998 -16.79 125.04 15 -1 -15.93 125.01 20 25 1001 73 3 204
1998 SI WA 22:00:00 NR -16.38 125.00 25 1002 bom 0 0 P_____O_______ SH151998 -16.76 124.99 15 -1 -16.00 125.00 20 25 1002 53 3 7 2 268
1998 SI WA 1998-01-23 00:00:00 TS -16.37 124.93 0 0 O_____P_____O_ jtwc_sh SH151998 -16.70 124.90 15 -1 -16.12 124.93 20 25 1002 53 -16.00 125.00 TC 25 1002 3 266
1998 SI WA 03:00:00 TS -16.39 124.78 0 0 P_____P_____P_ SH151998 -16.63 124.75 17 -1 -16.27 124.77 20 25 1002 53 -16.17 124.86 TC 25 1002 3 261
1998 SI WA 04:00:00 TS -16.40 124.73 25 1002 bom 10 10 P_____O_____P_ SH151998 -16.62 124.70 18 -1 -16.30 124.70 20 25 1002 53 3 7 -16.22 124.81 TC 25 1002 3 262
1998 SI WA 06:00:00 TS -16.41 124.62 10 0 O_____P_____O_ jtwc_sh SH151998 -16.60 124.60 20 -1 -16.34 124.57 20 25 1001 53 -16.30 124.70 TC 25 1002 3 260
1998 SI WA 09:00:00 TS -16.44 124.44 0 0 P_____P_____P_ SH151998 -16.58 124.45 20 -1 -16.38 124.37 20 25 1001 53 -16.36 124.51 TC 25 1001 4 261
1998 SI WA 10:00:00 TS -16.45 124.38 25 1001 bom 10 10 P_____O_____P_ SH151998 -16.59 124.40 20 -1 -16.40 124.30 20 25 1001 53 3 7 -16.37 124.44 TC 25 1001 4 255
1998 SI WA 12:00:00 TS -16.49 124.26 10 0 O_____P_____O_ jtwc_sh SH151998 -16.60 124.30 20 -1 -16.46 124.17 20 25 1001 53 -16.40 124.30 TC 25 1001 4 248
1998 SI WA 15:00:00 TS -16.57 124.08 0 0 P_____P_____P_ SH151998 -16.64 124.15 22 -1 -16.57 123.97 20 25 1001 53 -16.50 124.11 TC 25 1001 4 245
1998 SI WA 16:00:00 TS -16.60 124.01 25 1001 bom 0 0 P_____O_____P_ SH151998 -16.66 124.10 23 -1 -16.60 123.90 20 25 1001 53 3 7 -16.54 124.04 TC 25 1001 4 248
1998 SI WA 18:00:00 TS -16.65 123.88 0 0 O_____P_____O_ jtwc_sh SH151998 -16.70 124.00 25 -1 -16.64 123.74 20 25 1001 53 -16.60 123.90 TC 25 1001 4 253
1998 SI WA 21:00:00 TS -16.70 123.67 0 0 P_____P_____P_ SH151998 -16.75 123.86 25 -1 -16.69 123.48 20 25 1001 53 -16.66 123.65 TC 25 1001 4 257
1998 SI WA 22:00:00 TS -16.71 123.59 25 1001 bom 0 0 P_____O_____P_ SH151998 -16.77 123.82 25 -1 -16.70 123.40 20 25 1001 53 3 7 -16.67 123.56 TC 25 1001 4 257
1998 SI WA 1998-01-24 00:00:00 TS -16.74 123.45 0 0 O_____P_____O_ jtwc_sh SH151998 -16.80 123.70 25 -1 -16.73 123.26 20 25 1001 53 -16.70 123.40 TC 25 1001 4 256
1998 SI WA 03:00:00 TS -16.79 123.24 10 10 P_____P_____P_ SH151998 -16.85 123.47 25 -1 -16.78 123.06 20 25 1001 53 -16.75 123.19 TC 25 1001 4 256
1998 SI WA 04:00:00 TS -16.81 123.17 25 1001 bom 10 0 P_____O_____P_ SH151998 -16.87 123.39 25 -1 -16.80 123.00 20 25 1001 53 3 7 -16.77 123.13 TC 25 1001 4 257
1998 SI WA 06:00:00 TS -16.84 123.03 0 0 O_____P_____O_ jtwc_sh SH151998 -16.90 123.20 25 -1 -16.82 122.88 20 25 1000 61 -16.80 123.00 TC 25 1001 4 258
1998 SI WA 09:00:00 TS -16.89 122.80 0 0 P_____P_____P_ SH151998 -16.95 122.91 27 -1 -16.87 122.68 20 25 1000 75 -16.83 122.81 TC 27 1000 5 258
1998 SI WA 10:00:00 TS -16.91 122.72 25 1000 bom 0 0 P_____O_____P_ SH151998 -16.97 122.81 28 -1 -16.90 122.60 20 25 1000 80 3 7 -16.85 122.75 TC 28 1000 5 251
1998 SI WA 12:00:00 TS -16.97 122.54 0 0 O_____P_____O_ jtwc_sh SH151998 -17.00 122.60 30 -1 -17.01 122.43 20 28 998 80 -16.90 122.60 TC 30 1000 6 247
1998 SI WA 15:00:00 TS -17.09 122.25 0 0 P_____P_____P_ SH151998 -17.05 122.31 32 -1 -17.17 122.12 20 33 995 80 -17.06 122.33 TC 35 997 6 247
1998 SI WA 16:00:00 TS -17.13 122.14 35 995 bom 21 21 P_____O_____P_ SH151998 -17.07 122.21 33 -1 -17.20 122.00 30 35 995 3.00 80 3 7 -17.12 122.23 TC 36 996 7 259
1998 SI WA 18:00:00 TS -17.16 121.91 33 33 O_____P_____O_ jtwc_sh SH151998 -17.10 122.00 35 0 -17.17 121.74 30 39 991 88 -17.20 122.00 TC 40 995 7 270
1998 SI WA 21:00:00 TS -17.13 121.53 77 77 P_____P_____P_ SH151998 -17.14 121.66 42 0 -17.10 121.33 30 47 986 102 -17.14 121.60 TC 47 990 7 274
1998 SI WA 22:00:00 TS -17.12 121.40 50 985 bom 87 87 P_____O_____P_ SH151998 -17.16 121.54 45 0 -17.10 121.20 30 50 985 3.50 107 3 5 -17.12 121.46 TC 50 988 7 263
1998 SI WA 1998-01-25 00:00:00 TS -17.17 121.16 105 105 O_____P_____O_ jtwc_sh SH151998 -17.20 121.30 50 0 -17.20 120.99 30 51 983 107 -17.10 121.20 TC 55 985 7 249
1998 SI WA 03:00:00 TS -17.33 120.85 141 139 P_____P_____P_ SH151998 -17.28 120.95 50 0 -17.43 120.70 30 54 980 107 -17.28 120.89 TC 57 982 7 241
1998 SI WA 04:00:00 TS -17.39 120.74 55 980 bom 150 150 P_____O_____P_ SH151998 -17.32 120.83 50 0 -17.50 120.60 30 55 980 4.00 107 4 5 -17.36 120.80 TC 58 981 7 243
1998 SI WA 06:00:00 TS -17.49 120.52 170 170 O_____P_____O_ jtwc_sh SH151998 -17.40 120.60 50 0 -17.58 120.36 30 56 978 107 -17.50 120.60 TC 60 980 7 248
1998 SI WA 09:00:00 TS -17.61 120.16 194 194 P_____P_____P_ SH151998 -17.55 120.24 50 0 -17.67 120.00 30 59 975 107 -17.62 120.23 TC 65 977 7 251
1998 SI WA 10:00:00 TS -17.65 120.04 60 975 bom 211 205 P_____O_____P_ SH151998 -17.60 120.12 50 0 -17.70 119.90 30 60 975 4.00 107 4 5 -17.64 120.12 TC 66 976 6 250
1998 SI WA 12:00:00 TS -17.72 119.85 224 219 O_____P_____O_ jtwc_sh SH151998 -17.70 119.90 50 0 -17.76 119.74 30 61 973 107 -17.70 119.90 TC 70 975 5 247
1998 SI WA 15:00:00 TS -17.82 119.62 239 239 P_____P_____P_ SH151998 -17.81 119.63 52 0 -17.86 119.56 30 64 970 107 -17.79 119.68 TC 72 972 5 244
1998 SI WA 16:00:00 TS -17.85 119.55 65 970 bom 232 232 P_____O_____P_ SH151998 -17.84 119.55 53 0 -17.90 119.50 40 65 970 4.50 107 6 5 -17.83 119.62 TC 73 971 4 239
1998 SI WA 18:00:00 TS -17.93 119.42 238 221 O_____P_____O_ jtwc_sh SH151998 -17.90 119.40 55 0 -18.00 119.36 40 68 968 107 -17.90 119.50 TC 75 970 5 237
1998 SI WA 21:00:00 TS -18.07 119.22 221 221 P_____P_____P_ SH151998 -17.99 119.19 60 0 -18.16 119.16 40 73 965 107 -18.06 119.29 TC 77 967 5 235
1998 SI WA 22:00:00 TS -18.11 119.15 75 965 bom 221 212 P_____O_____P_ SH151998 -18.03 119.13 61 0 -18.20 119.10 40 75 965 4.50 107 6 5 -18.11 119.23 TC 78 966 4 237
1998 SI WA 1998-01-26 00:00:00 TS -18.18 119.03 212 202 O_____P_____O_ jtwc_sh SH151998 -18.10 119.00 65 1 -18.25 118.99 40 76 963 115 -18.20 119.10 TC 80 965 4 240
1998 SI WA 03:00:00 TS -18.27 118.87 202 202 P_____P_____P_ SH151998 -18.26 118.81 72 1 -18.29 118.85 40 79 960 129 -18.26 118.94 TC 82 962 4 242
1998 SI WA 04:00:00 TS -18.30 118.81 80 960 bom 203 203 P_____O_____P_ SH151998 -18.31 118.74 75 1 -18.30 118.80 40 80 960 5.00 134 4 6 5 -18.28 118.89 TC 83 961 3 244
1998 SI WA 06:00:00 TS -18.35 118.70 205 194 O_____P_____O_ jtwc_sh SH151998 -18.40 118.60 80 1 -18.34 118.71 40 81 958 134 -18.30 118.80 TC 85 960 4 248
1998 SI WA 09:00:00 TS -18.41 118.52 200 200 P_____P_____P_ SH151998 -18.47 118.35 87 2 -18.39 118.56 40 84 955 134 -18.36 118.67 TC 90 957 4 252
1998 SI WA 10:00:00 TS -18.42 118.46 85 955 bom 200 200 P_____O_____P_ SH151998 -18.49 118.26 90 2 -18.40 118.50 40 85 955 5.00 134 6 5 -18.37 118.62 TC 91 956 4 262
1998 SI WA 12:00:00 TS -18.43 118.33 207 207 O_____P_____O_ jtwc_sh SH151998 -18.50 118.10 95 2 -18.40 118.38 40 88 951 134 -18.40 118.50 TC 95 955 4 266
1998 SI WA 13:00:00 TS -18.43 118.25 90 950 bom 207 207 P_____O_____P_ SH151998 -18.50 118.03 98 3 -18.40 118.30 40 90 950 5.50 134 6 5 -18.40 118.43 TC 97 952 5 273
1998 SI WA 15:00:00 TS -18.42 118.08 217 217 P_____P_____P_ SH151998 -18.48 117.89 105 3 -18.39 118.10 40 93 943 134 -18.39 118.26 TC 102 947 5 272
1998 SI WA 16:00:00 TS -18.42 118.00 95 940 bom 222 222 P_____O_____P_ SH151998 -18.48 117.83 108 3 -18.40 118.00 40 95 940 5.50 134 8 6 5 -18.39 118.17 TC 105 944 4 262
1998 SI WA 18:00:00 TS -18.45 117.85 213 213 O_____P_____O_ jtwc_sh SH151998 -18.50 117.70 115 4 -18.46 117.86 40 98 940 134 -18.40 118.00 TC 110 940 4 253
1998 SI WA 19:00:00 TS -18.48 117.79 100 940 bom 214 205 P_____O_____P_ SH151998 -18.54 117.64 115 4 -18.50 117.80 40 100 940 6.00 134 6 5 -18.42 117.93 TC 108 941 4 239
1998 SI WA 21:00:00 TS -18.56 117.67 205 205 P_____P_____P_ SH151998 -18.63 117.52 117 4 -18.57 117.67 40 100 946 134 -18.48 117.81 TC 105 945 4 237
1998 SI WA 22:00:00 TS -18.60 117.60 100 950 bom 208 200 P_____O_____P_ SH151998 -18.69 117.45 118 4 -18.60 117.60 40 100 950 6.00 134 8 6 5 -18.51 117.74 TC 103 946 5 240
1998 SI WA 1998-01-27 00:00:00 TS -18.69 117.44 203 203 O_____P_____O_ jtwc_sh SH151998 -18.80 117.30 120 4 -18.66 117.41 40 100 953 134 -18.60 117.60 TC 100 950 5 242
1998 SI WA 01:00:00 TS -18.73 117.35 100 955 bom 207 197 P_____O_____P_ SH151998 -18.84 117.22 120 4 -18.70 117.30 40 100 955 6.00 134 6 4 -18.64 117.52 TC 99 950 6 242
1998 SI WA 03:00:00 TS -18.83 117.16 202 192 P_____P_____P_ SH151998 -18.91 117.04 120 4 -18.83 117.11 40 100 955 134 -18.74 117.33 TC 97 952 6 241
1998 SI WA 04:00:00 TS -18.88 117.05 100 955 bom 192 178 P_____O_____P_ SH151998 -18.94 116.93 120 4 -18.90 117.00 40 100 955 6.00 134 8 6 5 -18.79 117.23 TC 96 953 7 245
1998 SI WA 06:00:00 TS -18.98 116.81 178 178 O_____P_____O_ jtwc_sh SH151998 -19.00 116.70 120 4 -19.04 116.74 40 96 948 134 -18.90 117.00 TC 95 955 8 246
1998 SI WA 07:00:00 TS -19.03 116.68 95 945 bom 178 168 P_____O_____P_ SH151998 -19.04 116.57 120 4 -19.10 116.60 40 95 945 5.50 134 6 5 -18.96 116.88 TC 96 953 8 249
1998 SI WA 09:00:00 TS -19.12 116.41 170 162 P_____P_____P_ SH151998 -19.12 116.27 120 4 -19.18 116.34 40 95 945 134 -19.08 116.63 TC 100 950 8 252
1998 SI WA 10:00:00 TS -19.16 116.27 95 945 bom 162 162 P_____O_____P_ SH151998 -19.15 116.12 120 4 -19.20 116.20 40 95 945 5.50 134 9 6 5 -19.13 116.49 TC 101 948 9 260
1998 SI WA 12:00:00 TS -19.20 115.96 172 172 O_____P_____O_ jtwc_sh SH151998 -19.20 115.80 120 4 -19.21 115.87 40 91 948 134 -19.20 116.20 TC 105 945 9 265
1998 SI WA 13:00:00 TS -19.20 115.80 90 950 bom 182 182 P_____O_____P_ SH151998 -19.21 115.65 119 4 -19.20 115.70 40 90 950 5.50 134 9 6 5 -19.20 116.04 TC 103 946 9 275
1998 SI WA 15:00:00 TS -19.16 115.49 200 200 P_____P_____P_ SH151998 -19.20 115.35 117 4 -19.12 115.41 40 86 953 134 -19.16 115.71 TC 100 950 9 277
1998 SI WA 16:00:00 TS -19.14 115.31 85 955 bom 222 222 P_____O_____P_ SH151998 -19.19 115.20 116 4 -19.10 115.20 40 85 955 5.00 134 9 6 5 -19.14 115.54 TC 98 951 12 271
1998 SI WA 18:00:00 TS -19.15 114.86 233 233 O_____P_____O_ jtwc_sh SH151998 -19.20 114.90 115 4 -19.16 114.48 40 81 955 134 -19.10 115.20 TC 95 955 12 267
1998 SI WA 19:00:00 TS -19.18 114.66 80 955 bom 246 246 P_____O_____P_ SH151998 -19.22 114.75 114 4 -19.20 114.20 40 80 955 5.00 134 8 6 5 -19.10 115.03 TC 95 955 8 263
1998 SI WA 21:00:00 TS -19.21 114.44 263 263 P_____P_____P_ SH151998 -19.29 114.45 112 3 -19.20 114.16 40 80 955 134 -19.13 114.70 TC 95 955 6 260
1998 SI WA 22:00:00 TS -19.23 114.34 80 955 bom 270 268 P_____O_____P_ SH151998 -19.33 114.30 111 3 -19.20 114.20 40 80 955 5.00 134 9 6 5 -19.15 114.53 TC 95 955 7 258
1998 SI WA 1998-01-28 00:00:00 TS -19.28 114.06 275 275 O_____P_____O_ jtwc_sh SH151998 -19.40 114.00 110 3 -19.25 113.97 40 80 955 134 -19.20 114.20 TC 95 955 9 259
1998 SI WA 03:00:00 TS -19.37 113.56 282 282 P_____P_____P_ SH151998 -19.46 113.56 112 3 -19.36 113.40 40 80 955 134 -19.29 113.70 TC 95 955 10 259
1998 SI WA 04:00:00 TS -19.40 113.38 80 955 bom 286 284 P_____O_____P_ SH151998 -19.48 113.42 113 4 -19.40 113.20 40 80 955 5.00 134 10 4 5 -19.33 113.53 TC 95 955 10 260
1998 SI WA 06:00:00 TS -19.46 113.06 284 284 O_____P_____O_ jtwc_sh SH151998 -19.50 113.10 115 4 -19.48 112.87 40 83 956 134 -19.40 113.20 TC 95 955 10 261
1998 SI WA 09:00:00 TS -19.53 112.54 310 310 P_____P_____P_ SH151998 -19.51 112.56 115 4 -19.58 112.37 40 88 959 134 -19.51 112.70 TC 90 957 10 262
1998 SI WA 10:00:00 TS -19.55 112.37 90 960 bom 306 306 P_____O_____P_ SH151998 -19.51 112.38 115 4 -19.60 112.20 40 90 960 5.50 134 10 4 5 -19.55 112.53 TC 88 958 10 266
1998 SI WA 12:00:00 TS -19.57 112.02 330 330 O_____P_____O_ jtwc_sh SH151998 -19.50 112.00 115 4 -19.62 111.86 40 86 963 125 -19.60 112.20 TC 85 960 10 268
1998 SI WA 15:00:00 TS -19.57 111.49 365 365 P_____P_____P_ SH151998 -19.50 111.44 110 3 -19.61 111.36 40 81 968 111 -19.61 111.68 TC 80 965 10 270
1998 SI WA 16:00:00 TS -19.57 111.32 80 970 bom 380 380 P_____O_____P_ SH151998 -19.50 111.25 108 3 -19.60 111.20 40 80 970 5.00 107 3 5 -19.61 111.52 TC 78 966 9 271
1998 SI WA 18:00:00 TS -19.57 111.00 404 404 O_____P_____O_ jtwc_sh SH151998 -19.50 110.90 105 3 -19.60 110.91 40 71 974 107 -19.60 111.20 TC 75 970 9 270
1998 SI WA 21:00:00 TS -19.56 110.57 437 437 P_____P_____P_ SH151998 -19.49 110.40 100 3 -19.60 110.52 40 59 982 107 -19.60 110.78 TC 65 977 8 270
1998 SI WA 22:00:00 TS -19.56 110.44 55 985 bom 454 454 P_____O_____P_ SH151998 -19.49 110.26 98 3 -19.60 110.40 30 55 985 4.00 107 3 5 -19.60 110.65 TC 61 980 7 270
1998 SI WA 1998-01-29 00:00:00 TS -19.57 110.18 471 471 O_____P_____O_ jtwc_sh SH151998 -19.50 110.00 95 2 -19.60 110.15 30 53 985 107 -19.60 110.40 TC 55 985 7 268
1998 SI WA 03:00:00 TS -19.58 109.85 497 497 P_____P_____P_ SH151998 -19.54 109.71 87 2 -19.60 109.81 30 50 985 107 -19.60 110.04 TC 55 985 6 267
1998 SI WA 04:00:00 TS -19.59 109.75 50 985 bom 506 506 P_____O_____P_ SH151998 -19.56 109.64 84 2 -19.60 109.70 30 50 985 3.50 107 3 5 -19.60 109.92 TC 55 985 5 266
1998 SI WA 06:00:00 TS -19.60 109.56 524 524 O_____P_____O_ jtwc_sh SH151998 -19.60 109.50 80 1 -19.60 109.49 30 50 985 107 -19.60 109.70 TC 55 985 5 265
1998 SI WA 09:00:00 TS -19.62 109.29 552 552 P_____P_____P_ SH151998 -19.66 109.29 72 1 -19.60 109.19 30 50 985 107 -19.60 109.39 TC 55 985 5 265
1998 SI WA 10:00:00 TS -19.63 109.20 50 985 bom 561 561 P_____O_____P_ SH151998 -19.68 109.23 69 1 -19.60 109.10 30 50 985 3.50 107 3 5 -19.60 109.29 TC 55 985 5 267
1998 SI WA 12:00:00 TS -19.64 109.04 579 579 O_____P_____O_ jtwc_sh SH151998 -19.70 109.10 65 1 -19.61 108.92 30 46 986 107 -19.60 109.10 TC 55 985 5 270
1998 SI WA 15:00:00 TS -19.63 108.81 598 598 P_____P_____P_ SH151998 -19.66 108.91 57 0 -19.61 108.68 30 41 989 107 -19.61 108.84 TC 50 987 4 274
1998 SI WA 16:00:00 TS -19.62 108.73 40 990 bom 608 608 P_____O_____P_ SH151998 -19.64 108.84 54 0 -19.60 108.60 30 40 990 3.00 107 3 5 -19.61 108.75 TC 48 988 4 280
1998 SI WA 18:00:00 TS -19.59 108.59 617 617 O_____P_____O_ jtwc_sh SH151998 -19.60 108.70 50 0 -19.57 108.46 30 38 991 107 -19.60 108.60 TC 45 990 4 283
1998 SI WA 21:00:00 TS -19.54 108.38 641 641 P_____P_____P_ SH151998 -19.55 108.47 45 0 -19.51 108.27 30 35 994 107 -19.55 108.40 TC 42 992 4 284
1998 SI WA 22:00:00 TS -19.52 108.31 35 995 bom 649 649 P_____O_____P_ SH151998 -19.53 108.38 43 0 -19.50 108.20 30 35 995 3.00 107 3 5 -19.53 108.34 TC 41 993 4 281
1998 SI WA 1998-01-30 00:00:00 TS -19.50 108.15 667 667 O_____P_____O_ jtwc_sh SH151998 -19.50 108.20 40 0 -19.49 108.04 30 33 995 107 -19.50 108.20 TC 40 995 5 277
1998 SI WA 03:00:00 TS -19.47 107.88 685 685 P_____P_____P_ SH151998 -19.44 107.91 37 0 -19.49 107.79 30 30 996 107 -19.48 107.96 TC 37 996 5 274
1998 SI WA 04:00:00 TS -19.47 107.79 30 997 bom 694 694 P_____O_____P_ SH151998 -19.43 107.81 36 0 -19.50 107.70 20 30 997 2.50 107 3 5 -19.49 107.87 TC 36 996 5 269
1998 SI WA 06:00:00 TS -19.48 107.61 712 712 O_____P_____O_ jtwc_sh SH151998 -19.40 107.60 35 0 -19.53 107.53 20 28 997 107 -19.50 107.70 TC 35 997 5 265
1998 SI WA 09:00:00 TS -19.51 107.34 739 739 P_____P_____P_ SH151998 -19.39 107.29 35 0 -19.59 107.28 20 25 999 107 -19.55 107.44 TC 32 998 5 263
1998 SI WA 10:00:00 TS -19.52 107.25 25 1000 bom 739 739 P_____O_____P_ SH151998 -19.39 107.19 35 0 -19.60 107.20 20 25 1000 2.00 107 3 5 -19.57 107.36 TC 31 999 5 264
1998 SI WA 12:00:00 TS -19.54 107.09 758 758 O_____P_____O_ jtwc_sh SH151998 -19.40 107.00 35 0 -19.61 107.06 20 25 1000 107 -19.60 107.20 TC 30 1000 4 268
1998 SI WA 15:00:00 TS -19.54 106.86 776 776 P_____P_____P_ SH151998 -19.40 106.72 32 -1 -19.60 106.86 20 25 1000 107 -19.61 106.99 TC 30 1000 4 270
1998 SI WA 16:00:00 TS -19.54 106.79 25 1000 bom 785 785 P_____O_____P_ SH151998 -19.40 106.64 31 -1 -19.60 106.80 20 25 1000 2.00 107 3 5 -19.61 106.93 TC 30 1000 4 270
1998 SI WA 18:00:00 TS -19.54 106.66 795 795 O_____P_____O_ jtwc_sh SH151998 -19.40 106.50 30 -1 -19.61 106.67 20 25 1000 107 -19.60 106.80 TC 30 1000 3 269
1998 SI WA 21:00:00 TS -19.54 106.49 813 813 P_____P_____P_ SH151998 -19.40 106.38 30 -1 -19.61 106.47 20 25 1001 107 -19.61 106.61 TC 27 1001 3 270
1998 SI WA 22:00:00 TS -19.54 106.43 25 1002 bom 823 823 P_____O_____P_ SH151998 -19.40 106.35 30 -1 -19.60 106.40 20 25 1002 1.50 107 3 5 -19.61 106.54 TC 26 1001 3 275
1998 SI WA 1998-01-31 00:00:00 TS -19.52 106.31 832 832 O_____P_____O_ jtwc_sh SH151998 -19.40 106.30 30 -1 -19.57 106.24 20 25 1002 107 -19.60 106.40 TC 25 1002 4 278
1998 SI WA 03:00:00 TS -19.49 106.11 851 851 P_____P_____P_ SH151998 -19.40 106.20 27 -1 -19.52 105.98 20 25 1002 107 -19.56 106.15 TC 25 1002 4 280
1998 SI WA 04:00:00 TS -19.48 106.04 25 1002 bom 861 861 P_____O_____P_ SH151998 -19.40 106.17 26 -1 -19.50 105.90 20 25 1002 1.50 107 3 5 -19.54 106.06 TC 25 1002 4 281
1998 SI WA 06:00:00 TS -19.46 105.92 870 870 O_____P_____O_ jtwc_sh SH151998 -19.40 106.10 25 -1 -19.47 105.75 20 25 1002 107 -19.50 105.90 TC 25 1002 3 279
1998 SI WA 09:00:00 TS -19.43 105.75 884 884 P_____P_____P_ SH151998 -19.42 106.02 25 -1 -19.42 105.56 20 25 1002 107 -19.46 105.69 TC 25 1002 3 280
1998 SI WA 10:00:00 TS -19.42 105.70 25 1002 bom 894 894 P_____O_____P_ SH151998 -19.42 105.98 25 -1 -19.40 105.50 20 25 1002 1.50 107 3 5 -19.44 105.62 TC 25 1002 3 290
1998 SI WA 12:00:00 TS -19.38 105.60 903 903 O_____P_____O_ jtwc_sh SH151998 -19.40 105.90 25 -1 -19.34 105.39 20 25 1002 107 -19.40 105.50 TC 25 1002 3 301
1998 SI WA 15:00:00 TS -19.27 105.44 927 927 P_____P_____P_ SH151998 -19.27 105.72 25 -1 -19.24 105.25 20 25 1002 107 -19.31 105.34 TC 25 1002 4 307
1998 SI WA 16:00:00 TS -19.23 105.38 25 1002 bom 932 932 P_____O_____P_ SH151998 -19.22 105.65 25 -1 -19.20 105.20 20 25 1002 1.50 107 3 5 -19.27 105.29 TC 25 1002 4 308
1998 SI WA 18:00:00 TS -19.15 105.27 946 946 O_____P_____O_ jtwc_sh SH151998 -19.10 105.50 25 -1 -19.14 105.10 20 23 1002 107 -19.20 105.20 TC 25 1002 4 304
1998 SI WA 21:00:00 TS -19.04 105.08 970 970 P_____P_____P_ SH151998 -18.97 105.25 25 -1 -19.04 104.95 20 20 1003 107 -19.11 105.05 TC 22 1003 4 302
1998 SI WA 22:00:00 TS -19.00 105.02 20 1004 bom 980 980 P_____O_____P_ SH151998 -18.92 105.16 25 -1 -19.00 104.90 20 20 1004 1.00 107 3 5 -19.07 105.00 TC 21 1003 4 309
1998 SI WA 1998-02-01 00:00:00 TS -18.90 104.90 994 994 O_____P_____O_ jtwc_sh SH151998 -18.80 105.00 25 -1 -18.90 104.80 20 20 1004 107 -19.00 104.90 TC 20 1004 5 317
1998 SI WA 03:00:00 TS -18.70 104.73 1023 1023 P_____P_____P_ SH151998 -18.52 104.79 22 -1 -18.74 104.65 20 20 1004 107 -18.84 104.75 TC 20 1004 5 321
1998 SI WA 04:00:00 TS -18.64 104.68 20 1004 bom 1028 1028 P_____O_____P_ SH151998 -18.42 104.73 21 -1 -18.70 104.60 20 20 1004 1.00 107 3 5 -18.79 104.70 TC 20 1004 5 321
1998 SI WA 06:00:00 TS -18.52 104.57 1042 1042 O_____P_____O_ jtwc_sh SH151998 -18.20 104.60 20 -1 -18.65 104.52 20 20 1004 107 -18.70 104.60 TC 20 1004 4 312
1998 SI WA 09:00:00 TS -18.40 104.41 1066 1066 P_____P_____P_ SH151998 -17.89 104.40 22 -1 -18.62 104.38 20 20 1004 107 -18.63 104.45 TC 20 1004 4 297
1998 SI WA 10:00:00 TS -18.40 104.33 20 1004 bom 1075 1075 P_____O_____P_ SH151998 -17.79 104.34 23 -1 -18.60 104.30 20 20 1004 1.00 107 3 5 -18.62 104.40 TC 20 1004 5 273
1998 SI WA 12:00:00 TS -18.39 104.12 1094 1094 O_____P_____O_ jtwc_sh SH151998 -17.60 104.20 25 -1 -18.53 104.06 20 -18.60 104.30 TC 20 1004 9 271
1998 SI WA 15:00:00 NR -18.38 103.54 1151 1151 ______P_______ SH151998 -1 -18.38 103.54 20 TC 12 279
1998 SI WA 18:00:00 NR -18.21 102.91 1218 1218 ______P_______ -1 -18.21 102.91 20 13 286
1998 SI WA 21:00:00 NR -18.03 102.22 1271 1271 ______P_______ -1 -18.03 102.22 20 14 285
1998 SI WA 1998-02-02 00:00:00 NR -17.87 101.52 1290 1284 ______P_______ -1 -17.87 101.52 20 13 283
1998 SI WA 03:00:00 NR -17.73 100.89 1298 1298 ______P_______ -1 -17.73 100.89 20 12 282
1998 SI WA 04:00:00 NR -17.70 100.70 20 1006 bom 1308 1308 ______O_______ -1 -17.70 100.70 20 20 1006 1.00 107 3 5 10 279
1998 SI WA 06:00:00 NR -17.65 100.37 1324 1319 ______P_______ -1 -17.65 100.37 20 20 1006 107 9 277
1998 SI WA 09:00:00 NR -17.61 99.94 1339 1339 ______P_______ -1 -17.61 99.94 20 20 1006 107 8 275
1998 SI WA 10:00:00 NR -17.60 99.80 20 1006 bom 1343 ______O_______ -1 -17.60 99.80 20 20 1006 1.00 107 3 5 8 274